Time;durP1;ratioP1;P1;durP2;ratioP2;P2;SDS_P1;SDS_P2;PMS_P1;PMS_P2;Temp;Humidity;BMP_temperature;BMP_pressure;BME280_temperature;BME280_humidity;BME280_pressure;Samples;Min_cycle;Max_cycle;Signal;HPM_P1;HPM_P2
2022/08/12 00:43:35;;;;;;;;;;;;;;;18.71;100.00;99672.97;5039146;28;19928;-76
2022/08/12 00:48:49;;;;;;;;;;;;;;;19.10;100.00;99666.50;5056786;28;19971;-76
2022/08/12 00:51:18;;;;;;;;;;;;;;;18.99;100.00;99666.16;5056880;28;20422;-76
2022/08/12 00:53:44;;;;;;;;;;;;;;;19.01;100.00;99660.81;5055751;28;19932;-76
2022/08/12 00:56:11;;;;;;;;;;;;;;;19.02;100.00;99656.72;5056673;28;20032;-76
2022/08/12 00:58:43;;;;;;;;;;;;;;;18.67;100.00;99660.19;5056524;28;19929;-76
2022/08/12 01:01:10;;;;;;;;;;;;;;;18.37;100.00;99653.28;5038721;28;19925;-76
2022/08/12 01:11:59;;;;;;;;;;;;;;;18.39;100.00;99647.94;5021893;28;19925;-76
2022/08/12 01:14:27;;;;;;;;;;;;;;;18.51;100.00;99652.72;5038319;28;19928;-76
2022/08/12 01:16:54;;;;;;;;;;;;;;;18.44;100.00;99653.00;5088630;28;19971;-76
2022/08/12 01:19:22;;;;;;;;;;;;;;;18.18;100.00;99657.19;5055198;28;20160;-76
2022/08/12 01:22:26;;;;;;;;;;;;;;;17.99;100.00;99661.16;5055040;28;19925;-76
2022/08/12 01:24:54;;;;;;;;;;;;;;;17.78;100.00;99650.63;4986994;28;19930;-76
2022/08/12 01:27:22;;;;;;;;;;;;;;;17.23;100.00;99659.75;4962269;28;20028;-76
2022/08/12 01:29:51;;;;;;;;;;;;;;;17.81;100.00;99655.34;4978373;28;19926;-76
2022/08/12 01:32:19;;;;;;;;;;;;;;;18.16;100.00;99659.69;4961762;28;19949;-76
2022/08/12 01:35:17;;;;;;;;;;;;;;;18.36;100.00;99648.81;4994275;28;19926;-76
2022/08/12 01:37:48;;;;;;;;;;;;;;;17.91;100.00;99648.50;4982606;28;20671;-76
2022/08/12 01:40:18;;;;;;;;;;;;;;;17.56;100.00;99655.41;4977072;28;19988;-76
2022/08/12 01:42:48;;;;;;;;;;;;;;;18.16;100.00;99647.59;4976368;28;19926;-76
2022/08/12 01:45:16;;;;;;;;;;;;;;;18.43;100.00;99637.28;4977944;28;19933;-76
2022/08/12 01:47:50;;;;;;;;;;;;;;;18.69;100.00;99641.50;4977913;28;19957;-76
2022/08/12 01:50:30;;;;;;;;;;;;;;;18.79;100.00;99636.66;4994254;28;19929;-76
2022/08/12 01:53:04;;;;;;;;;;;;;;;18.56;100.00;99632.31;4961796;28;19972;-76
2022/08/12 01:55:33;;;;;;;;;;;;;;;18.67;100.00;99634.72;4977905;28;20438;-76
2022/08/12 01:58:16;;;;;;;;;;;;;;;18.65;100.00;99638.03;4969022;28;20358;-76
2022/08/12 02:00:50;;;;;;;;;;;;;;;18.37;100.00;99636.31;5055404;28;20369;-76
2022/08/12 02:12:26;;;;;;;;;;;;;;;18.03;100.00;99627.88;5037271;28;19939;-76
2022/08/12 02:15:24;;;;;;;;;;;;;;;18.27;100.00;99622.50;5037452;28;19931;-76
2022/08/12 02:17:51;;;;;;;;;;;;;;;18.28;100.00;99629.78;5021191;28;19925;-76
2022/08/12 02:20:20;;;;;;;;;;;;;;;18.43;100.00;99619.50;5020902;28;20011;-76
2022/08/12 02:22:49;;;;;;;;;;;;;;;17.59;100.00;99623.41;5020885;28;19932;-76
2022/08/12 02:25:30;;;;;;;;;;;;;;;17.44;100.00;99630.81;5001866;28;19970;-76
2022/08/12 02:27:59;;;;;;;;;;;;;;;17.09;100.00;99626.34;5075053;28;19931;-76
2022/08/12 02:30:30;;;;;;;;;;;;;;;17.11;100.00;99629.50;5057278;28;19947;-76
2022/08/12 02:32:59;;;;;;;;;;;;;;;17.73;100.00;99620.09;5040443;28;20381;-76
2022/08/12 02:35:27;;;;;;;;;;;;;;;17.99;100.00;99618.75;5056856;28;20019;-76
2022/08/12 02:37:55;;;;;;;;;;;;;;;17.17;100.00;99620.03;5056990;28;19924;-76
2022/08/12 02:40:23;;;;;;;;;;;;;;;17.13;100.00;99616.50;5040292;28;20354;-76
2022/08/12 02:42:51;;;;;;;;;;;;;;;17.16;100.00;99615.59;5074560;28;19949;-76
2022/08/12 02:45:20;;;;;;;;;;;;;;;17.32;100.00;99609.81;5039921;28;19926;-76
2022/08/12 02:47:49;;;;;;;;;;;;;;;17.55;100.00;99620.72;5056752;28;19994;-76
2022/08/12 02:50:19;;;;;;;;;;;;;;;16.85;100.00;99611.81;5056699;28;20023;-76
2022/08/12 02:52:46;;;;;;;;;;;;;;;16.51;100.00;99614.50;5056577;28;19932;-76
2022/08/12 02:55:17;;;;;;;;;;;;;;;16.91;100.00;99614.84;5056501;28;19925;-76
2022/08/12 02:57:45;;;;;;;;;;;;;;;17.43;100.00;99615.09;5039905;28;19924;-76
2022/08/12 03:00:13;;;;;;;;;;;;;;;17.67;100.00;99610.63;5074209;28;19931;-76
2022/08/12 03:02:42;;;;;;;;;;;;;;;17.29;100.00;99613.56;5023340;28;19931;-76
2022/08/12 03:05:11;;;;;;;;;;;;;;;16.68;100.00;99618.00;5040370;28;19932;-76
2022/08/12 03:07:44;;;;;;;;;;;;;;;16.81;100.00;99624.47;5074130;28;19970;-76
2022/08/12 03:10:11;;;;;;;;;;;;;;;17.37;100.00;99608.44;5074012;28;19935;-76
2022/08/12 03:12:39;;;;;;;;;;;;;;;16.56;100.00;99621.63;5074026;28;19966;-76
2022/08/12 03:15:10;;;;;;;;;;;;;;;16.37;100.00;99620.56;5056535;28;19931;-78
2022/08/12 03:17:47;;;;;;;;;;;;;;;16.44;100.00;99617.56;5039704;28;20038;-79
2022/08/12 03:20:15;;;;;;;;;;;;;;;16.60;100.00;99616.69;5055931;28;19968;-79
2022/08/12 03:22:43;;;;;;;;;;;;;;;17.13;100.00;99610.09;5055925;28;19925;-79
2022/08/12 03:25:14;;;;;;;;;;;;;;;17.22;100.00;99621.47;5049513;28;19967;-78
2022/08/12 03:27:48;;;;;;;;;;;;;;;16.15;100.00;99609.16;5039480;28;19925;-79
2022/08/12 03:30:18;;;;;;;;;;;;;;;16.15;100.00;99614.78;5072751;28;19964;-79
2022/08/12 03:32:47;;;;;;;;;;;;;;;16.66;100.00;99610.00;5074037;28;20035;-78
2022/08/12 03:35:16;;;;;;;;;;;;;;;16.98;100.00;99598.47;5073735;28;19925;-79
2022/08/12 03:37:44;;;;;;;;;;;;;;;17.23;100.00;99603.28;5106377;28;19982;-79
2022/08/12 03:41:33;;;;;;;;;;;;;;;17.33;100.00;99596.47;5072398;28;20023;-79
2022/08/12 04:02:28;;;;;;;;;;;;;;;17.38;100.00;99607.19;5073177;28;19924;-79
2022/08/12 04:04:56;;;;;;;;;;;;;;;17.31;100.00;99610.28;5077803;28;19950;-79
2022/08/12 04:07:23;;;;;;;;;;;;;;;17.22;100.00;99607.34;5092991;28;19974;-79
2022/08/12 04:09:50;;;;;;;;;;;;;;;17.30;100.00;99605.84;5059828;28;20015;-79
2022/08/12 04:15:03;;;;;;;;;;;;;;;17.34;100.00;99600.88;5077519;28;19989;-79
2022/08/12 04:17:32;;;;;;;;;;;;;;;17.37;100.00;99597.16;5076301;28;19924;-79
2022/08/12 04:19:59;;;;;;;;;;;;;;;17.23;100.00;99598.44;5076196;28;20338;-79
2022/08/12 04:22:28;;;;;;;;;;;;;;;16.02;100.00;99605.50;5077118;28;20269;-79
2022/08/12 04:25:02;;;;;;;;;;;;;;;16.34;100.00;99598.91;5059226;28;19925;-79
2022/08/12 04:27:30;;;;;;;;;;;;;;;16.98;100.00;99592.81;5059718;28;19924;-79
2022/08/12 04:29:57;;;;;;;;;;;;;;;17.11;100.00;99598.44;5076094;28;20272;-79
2022/08/12 04:32:24;;;;;;;;;;;;;;;17.00;100.00;99590.34;5076132;28;19970;-78
2022/08/12 04:34:51;;;;;;;;;;;;;;;17.04;100.00;99590.22;5077112;28;20015;-78
2022/08/12 04:37:19;;;;;;;;;;;;;;;17.05;100.00;99594.63;5059438;28;19924;-79
2022/08/12 04:39:47;;;;;;;;;;;;;;;17.16;100.00;99597.88;5075800;28;20354;-79
2022/08/12 04:42:14;;;;;;;;;;;;;;;17.14;100.00;99594.72;5092777;28;20023;-78
2022/08/12 04:44:43;;;;;;;;;;;;;;;17.03;100.00;99591.44;5059180;28;19924;-79
2022/08/12 04:47:15;;;;;;;;;;;;;;;16.63;100.00;99593.19;5075564;28;19928;-79
2022/08/12 04:49:43;;;;;;;;;;;;;;;16.72;100.00;99596.13;5075879;28;19925;-78
2022/08/12 04:52:10;;;;;;;;;;;;;;;16.15;100.00;99597.88;5058759;28;19968;-78
2022/08/12 04:54:37;;;;;;;;;;;;;;;15.37;100.00;99595.66;5076563;28;20011;-78
2022/08/12 04:57:04;;;;;;;;;;;;;;;15.72;100.00;99594.69;5075801;28;20023;-78
2022/08/12 04:59:32;;;;;;;;;;;;;;;16.44;100.00;99597.81;5075299;28;19924;-78
2022/08/12 05:01:59;;;;;;;;;;;;;;;15.90;100.00;99597.78;5076218;28;19967;-78
2022/08/12 05:04:26;;;;;;;;;;;;;;;16.09;100.00;99601.69;5074884;28;19947;-79
2022/08/12 05:06:53;;;;;;;;;;;;;;;15.77;100.00;99602.59;5075935;28;20452;-78
2022/08/12 05:09:20;;;;;;;;;;;;;;;15.25;100.00;99613.25;5092184;28;20268;-79
2022/08/12 05:11:48;;;;;;;;;;;;;;;15.47;100.00;99608.69;5074671;28;19983;-78
2022/08/12 05:14:16;;;;;;;;;;;;;;;16.24;100.00;99603.63;5074749;28;20339;-79
2022/08/12 05:16:43;;;;;;;;;;;;;;;16.71;100.00;99606.63;5058265;28;19924;-79
2022/08/12 05:19:11;;;;;;;;;;;;;;;17.11;100.00;99606.91;5075153;28;19925;-79
2022/08/12 05:21:39;;;;;;;;;;;;;;;17.26;100.00;99610.84;5058084;28;20331;-79
2022/08/12 05:24:06;;;;;;;;;;;;;;;17.33;100.00;99607.75;5076068;28;19929;-79
2022/08/12 05:26:33;;;;;;;;;;;;;;;17.38;100.00;99601.53;5076334;28;19932;-79
2022/08/12 05:29:00;;;;;;;;;;;;;;;17.63;100.00;99609.97;5058350;28;19994;-79
2022/08/12 05:31:27;;;;;;;;;;;;;;;17.66;100.00;99611.88;5076103;28;19991;-79
2022/08/12 05:33:54;;;;;;;;;;;;;;;17.65;100.00;99613.91;5041794;28;19954;-78
2022/08/12 05:36:21;;;;;;;;;;;;;;;16.96;100.00;99617.91;5058186;28;20007;-79
2022/08/12 05:38:57;;;;;;;;;;;;;;;16.44;100.00;99620.38;5041443;28;19967;-79
2022/08/12 05:41:29;;;;;;;;;;;;;;;16.90;100.00;99618.94;5058014;28;19924;-79
2022/08/12 05:44:01;;;;;;;;;;;;;;;17.35;100.00;99608.09;5075030;28;20426;-79
2022/08/12 05:46:29;;;;;;;;;;;;;;;17.43;100.00;99615.09;5058115;28;19924;-79
2022/08/12 05:48:59;;;;;;;;;;;;;;;17.59;100.00;99618.56;5057843;28;19932;-79
2022/08/12 05:51:27;;;;;;;;;;;;;;;17.49;100.00;99616.13;5041156;28;19925;-79
2022/08/12 05:53:55;;;;;;;;;;;;;;;16.91;100.00;99626.13;5057830;28;19928;-78
2022/08/12 05:56:23;;;;;;;;;;;;;;;16.97;100.00;99627.16;5057871;28;20015;-79
2022/08/12 05:58:51;;;;;;;;;;;;;;;16.96;100.00;99634.03;5058177;28;20312;-78
2022/08/12 06:01:19;;;;;;;;;;;;;;;17.52;100.00;99632.16;5041193;28;19925;-78
2022/08/12 06:03:46;;;;;;;;;;;;;;;17.78;100.00;99630.81;5041054;28;20019;-79
2022/08/12 06:06:15;;;;;;;;;;;;;;;17.73;100.00;99637.06;5057446;28;20358;-79
2022/08/12 06:08:47;;;;;;;;;;;;;;;17.76;100.00;99641.78;5057587;28;19924;-79
2022/08/12 06:11:15;;;;;;;;;;;;;;;17.95;100.00;99644.31;5024513;28;19935;-79
2022/08/12 06:13:42;;;;;;;;;;;;;;;18.21;100.00;99642.13;5057620;28;20050;-79
2022/08/12 06:16:10;;;;;;;;;;;;;;;18.69;100.00;99635.81;5075232;28;20288;-78
2022/08/12 06:18:38;;;;;;;;;;;;;;;18.30;100.00;99636.53;5057571;28;19954;-78
2022/08/12 06:21:07;;;;;;;;;;;;;;;18.24;100.00;99638.38;5075214;28;20451;-76
2022/08/12 06:23:34;;;;;;;;;;;;;;;18.30;100.00;99642.19;5040856;28;20028;-76
2022/08/12 06:26:03;;;;;;;;;;;;;;;18.91;100.00;99645.06;5055093;28;20375;-76
2022/08/12 06:28:30;;;;;;;;;;;;;;;19.28;100.00;99649.59;5074078;28;19960;-76
2022/08/12 06:30:57;;;;;;;;;;;;;;;19.25;100.00;99644.06;5057107;28;19928;-76
2022/08/12 06:33:45;;;;;;;;;;;;;;;19.12;100.00;99634.91;5074919;28;19924;-76
2022/08/12 06:36:16;;;;;;;;;;;;;;;19.52;100.00;99632.81;5057394;28;19928;-76
2022/08/12 06:38:43;;;;;;;;;;;;;;;19.96;100.00;99631.25;5090869;28;19925;-76
2022/08/12 06:43:56;;;;;;;;;;;;;;;20.37;100.00;99635.50;5073452;28;20355;-76
2022/08/12 06:46:24;;;;;;;;;;;;;;;20.42;100.00;99629.16;5073707;28;20434;-76
2022/08/12 06:48:57;;;;;;;;;;;;;;;20.50;100.00;99627.56;5040642;28;19956;-76
2022/08/12 06:51:29;;;;;;;;;;;;;;;20.62;100.00;99626.56;5073466;28;19928;-76
2022/08/12 06:53:56;;;;;;;;;;;;;;;20.94;100.00;99626.63;5057086;28;19931;-76
2022/08/12 06:56:24;;;;;;;;;;;;;;;21.24;100.00;99624.75;5073350;28;19978;-76
2022/08/12 06:59:01;;;;;;;;;;;;;;;21.19;100.00;99625.41;5073542;28;19924;-76
2022/08/12 07:01:30;;;;;;;;;;;;;;;21.56;100.00;99621.06;5074151;28;20027;-78
2022/08/12 07:03:58;;;;;;;;;;;;;;;22.69;100.00;99615.75;5072879;28;19924;-77
2022/08/12 07:06:31;;;;;;;;;;;;;;;24.09;100.00;99612.31;5074368;28;19925;-78
2022/08/12 07:08:58;;;;;;;;;;;;;;;25.38;100.00;99602.28;5073346;28;19967;-78
2022/08/12 07:11:30;;;;;;;;;;;;;;;27.00;100.00;99594.34;5073188;28;19924;-78
2022/08/12 07:13:59;;;;;;;;;;;;;;;28.65;100.00;99579.31;5073140;28;20031;-78
2022/08/12 07:16:51;;;;;;;;;;;;;;;30.16;100.00;99565.59;5073024;28;19964;-78
2022/08/12 07:19:14;;;;;;;;;;;;;;;31.37;100.00;99563.56;5073929;28;19928;-78
2022/08/12 07:21:41;;;;;;;;;;;;;;;31.55;100.00;99568.47;5074026;28;19924;-78
2022/08/12 07:24:08;;;;;;;;;;;;;;;32.04;100.00;99562.97;5070405;28;19925;-78
2022/08/12 07:26:39;;;;;;;;;;;;;;;32.85;100.00;99564.44;5056202;28;19958;-78
2022/08/12 07:29:08;;;;;;;;;;;;;;;33.40;100.00;99553.53;5073982;28;20691;-78
2022/08/12 07:31:36;;;;;;;;;;;;;;;33.89;100.00;99562.91;5039289;28;20288;-78
2022/08/12 07:34:03;;;;;;;;;;;;;;;34.10;100.00;99557.78;5055880;28;19924;-78
2022/08/12 07:36:32;;;;;;;;;;;;;;;33.39;100.00;99551.97;5055122;28;20379;-78
2022/08/12 07:39:00;;;;;;;;;;;;;;;33.18;100.00;99554.13;5055332;28;19974;-78
2022/08/12 07:41:29;;;;;;;;;;;;;;;33.37;100.00;99548.84;5056000;28;19928;-78
2022/08/12 07:44:01;;;;;;;;;;;;;;;34.05;100.00;99544.25;5056047;28;20069;-79
2022/08/12 07:46:39;;;;;;;;;;;;;;;33.71;100.00;99543.66;5048792;28;20275;-78
2022/08/12 07:49:09;;;;;;;;;;;;;;;33.98;100.00;99547.88;5073587;28;19932;-78
2022/08/12 07:51:37;;;;;;;;;;;;;;;34.28;100.00;99545.06;5055654;28;20023;-78
2022/08/12 07:54:08;;;;;;;;;;;;;;;34.92;100.00;99539.81;5038444;28;19925;-78
2022/08/12 07:56:37;;;;;;;;;;;;;;;35.35;100.00;99542.53;5056158;28;19978;-78
2022/08/12 07:59:04;;;;;;;;;;;;;;;35.56;100.00;99537.25;5072843;28;19928;-79
2022/08/12 08:01:36;;;;;;;;;;;;;;;35.85;100.00;99532.69;5073320;28;19955;-78
2022/08/12 08:06:49;;;;;;;;;;;;;;;36.65;100.00;99526.84;5055849;28;19932;-79
2022/08/12 08:09:18;;;;;;;;;;;;;;;36.33;100.00;99532.69;5039617;28;20388;-77
2022/08/12 08:14:31;;;;;;;;;;;;;;;34.82;100.00;99541.72;5072984;28;19931;-79
2022/08/12 08:16:59;;;;;;;;;;;;;;;35.59;100.00;99541.09;5055527;28;20019;-79
2022/08/12 08:19:27;;;;;;;;;;;;;;;36.11;100.00;99529.28;5055652;28;19924;-79
2022/08/12 08:21:56;;;;;;;;;;;;;;;36.72;100.00;99520.22;5055540;28;20019;-78
2022/08/12 08:24:25;;;;;;;;;;;;;;;37.12;100.00;99523.75;5054151;28;19955;-78
2022/08/12 08:26:55;;;;;;;;;;;;;;;37.15;98.44;99525.47;5054992;28;20122;-78
2022/08/12 08:29:23;;;;;;;;;;;;;;;36.58;98.46;99528.44;5054537;28;19967;-78
2022/08/12 08:31:57;;;;;;;;;;;;;;;36.72;99.08;99526.03;5038041;28;19924;-78
2022/08/12 08:34:30;;;;;;;;;;;;;;;36.79;97.97;99526.00;5021480;28;19935;-78
2022/08/12 08:37:15;;;;;;;;;;;;;;;37.41;98.62;99527.78;5054682;28;19925;-78
2022/08/12 08:39:42;;;;;;;;;;;;;;;37.17;96.37;99526.41;5054562;28;19924;-78
2022/08/12 08:44:57;;;;;;;;;;;;;;;37.49;95.70;99523.41;5054683;28;19925;-78
2022/08/12 08:47:24;;;;;;;;;;;;;;;37.39;95.74;99516.72;5054624;28;19928;-78
2022/08/12 08:49:51;;;;;;;;;;;;;;;37.60;94.50;99516.28;5075422;28;20013;-78
2022/08/12 08:52:23;;;;;;;;;;;;;;;37.30;94.95;99522.44;5041416;28;19928;-78
2022/08/12 08:54:50;;;;;;;;;;;;;;;37.38;94.05;99520.97;5042005;28;19928;-78
2022/08/12 08:57:19;;;;;;;;;;;;;;;37.17;95.63;99514.75;5058016;28;19924;-78
2022/08/12 08:59:46;;;;;;;;;;;;;;;36.43;95.67;99516.91;5075931;28;19925;-78
2022/08/12 09:02:13;;;;;;;;;;;;;;;36.17;94.81;99524.00;5075827;28;20019;-78
2022/08/12 09:04:40;;;;;;;;;;;;;;;35.72;95.58;99520.50;5058242;28;19932;-78
2022/08/12 09:07:07;;;;;;;;;;;;;;;35.76;97.65;99521.66;5057681;28;19932;-78
2022/08/12 09:09:36;;;;;;;;;;;;;;;35.19;97.01;99523.53;5058312;28;19928;-78
2022/08/12 09:14:49;;;;;;;;;;;;;;;35.48;96.92;99510.31;5057827;28;19974;-78
2022/08/12 09:17:17;;;;;;;;;;;;;;;35.31;94.82;99510.13;5041206;28;19935;-78
2022/08/12 09:19:44;;;;;;;;;;;;;;;35.76;94.70;99510.03;5057878;28;20023;-78
2022/08/12 09:22:11;;;;;;;;;;;;;;;35.64;95.17;99513.97;5075470;28;19947;-78
2022/08/12 09:24:38;;;;;;;;;;;;;;;35.53;95.69;99512.25;5075183;28;19962;-78
2022/08/12 09:27:07;;;;;;;;;;;;;;;35.18;94.95;99509.59;5075479;28;20020;-78
2022/08/12 09:29:34;;;;;;;;;;;;;;;34.99;95.52;99512.13;5075172;28;19924;-78
2022/08/12 09:32:05;;;;;;;;;;;;;;;34.78;94.46;99512.28;5057376;28;20357;-78
2022/08/12 09:34:35;;;;;;;;;;;;;;;34.77;93.16;99509.97;5041059;28;20019;-78
2022/08/12 09:37:02;;;;;;;;;;;;;;;34.34;94.91;99505.06;5057489;28;19960;-78
2022/08/12 09:39:29;;;;;;;;;;;;;;;34.08;93.78;99502.50;5075356;28;19924;-78
2022/08/12 09:47:30;;;;;;;;;;;;;;;33.13;95.21;99495.03;5057529;28;19952;-78
2022/08/12 09:49:57;;;;;;;;;;;;;;;32.99;94.46;99503.03;5040980;28;19924;-78
2022/08/12 09:52:24;;;;;;;;;;;;;;;33.12;95.86;99504.28;5075225;28;20363;-78
2022/08/12 09:54:52;;;;;;;;;;;;;;;33.30;95.63;99504.03;5057165;28;19965;-78
2022/08/12 09:57:23;;;;;;;;;;;;;;;33.28;96.63;99505.94;5056869;28;19935;-78
2022/08/12 09:59:50;;;;;;;;;;;;;;;32.76;98.62;99513.63;5073995;28;19924;-77
2022/08/12 10:02:17;;;;;;;;;;;;;;;32.78;97.35;99510.94;5056851;28;20106;-78
2022/08/12 10:04:47;;;;;;;;;;;;;;;32.55;97.32;99509.22;5056911;28;20493;-77
2022/08/12 10:07:14;;;;;;;;;;;;;;;32.40;98.50;99509.06;5056933;28;20025;-78
2022/08/12 10:09:41;;;;;;;;;;;;;;;31.97;98.83;99511.63;5074481;28;19950;-78
2022/08/12 10:14:54;;;;;;;;;;;;;;;32.14;100.00;99509.16;5056585;28;19928;-78
2022/08/12 10:17:22;;;;;;;;;;;;;;;32.17;99.79;99505.13;5074604;28;19925;-78
2022/08/12 10:19:50;;;;;;;;;;;;;;;31.51;100.00;99504.47;5056419;28;19930;-78
2022/08/12 10:22:19;;;;;;;;;;;;;;;31.80;100.00;99503.31;5056903;28;20346;-78
2022/08/12 10:29:35;;;;;;;;;;;;;;;32.06;99.46;99503.28;5058373;28;19928;-78
2022/08/12 10:30:19;;;;;;;;;;;;;;;31.71;100.00;99495.13;5072827;28;19932;-78
2022/08/12 10:32:58;;;;;;;;;;;;;;;31.99;100.00;99497.41;5074214;28;20367;-78
2022/08/12 10:35:31;;;;;;;;;;;;;;;31.94;100.00;99495.41;5073093;28;19932;-78
2022/08/12 10:38:01;;;;;;;;;;;;;;;32.14;99.43;99489.66;5073163;28;19925;-78
2022/08/12 10:40:29;;;;;;;;;;;;;;;31.83;100.00;99482.00;5072467;28;19924;-78
2022/08/12 10:45:45;;;;;;;;;;;;;;;31.30;100.00;99486.28;5074019;28;20387;-78
2022/08/12 10:48:13;;;;;;;;;;;;;;;31.70;100.00;99482.03;5072702;28;19935;-78
2022/08/12 10:50:40;;;;;;;;;;;;;;;31.84;100.00;99477.78;5072437;28;19925;-78
2022/08/12 10:53:09;;;;;;;;;;;;;;;32.09;100.00;99466.69;5073654;28;19924;-78
2022/08/12 10:55:36;;;;;;;;;;;;;;;31.57;98.39;99467.59;5072524;28;20395;-78
2022/08/12 10:58:03;;;;;;;;;;;;;;;31.50;98.12;99474.06;5072548;28;20273;-78
2022/08/12 11:00:33;;;;;;;;;;;;;;;31.55;99.95;99469.50;5055988;28;19931;-78
2022/08/12 11:03:02;;;;;;;;;;;;;;;31.09;100.00;99470.94;5072408;28;20448;-78
2022/08/12 11:05:33;;;;;;;;;;;;;;;31.35;100.00;99465.19;5105961;28;19931;-78
2022/08/12 11:08:01;;;;;;;;;;;;;;;31.68;98.72;99455.00;5072008;28;20321;-78
2022/08/12 11:10:28;;;;;;;;;;;;;;;32.01;99.58;99466.59;5072111;28;19925;-78
2022/08/12 11:12:55;;;;;;;;;;;;;;;31.66;99.55;99457.72;5071964;28;19960;-78
2022/08/12 11:15:23;;;;;;;;;;;;;;;31.75;96.56;99448.56;5072206;28;19967;-78
2022/08/12 11:17:50;;;;;;;;;;;;;;;31.97;98.30;99451.75;5071936;28;20380;-78
2022/08/12 11:20:17;;;;;;;;;;;;;;;31.84;97.44;99446.00;5073285;28;19990;-78
2022/08/12 11:22:58;;;;;;;;;;;;;;;31.64;98.75;99455.38;5071891;28;20068;-78
2022/08/12 11:25:25;;;;;;;;;;;;;;;31.90;95.88;99437.22;5072902;28;19933;-78
2022/08/12 11:27:52;;;;;;;;;;;;;;;32.00;99.06;99436.16;5073151;28;19932;-78
2022/08/12 11:30:20;;;;;;;;;;;;;;;32.21;98.03;99439.84;5055165;28;19924;-78
2022/08/12 11:32:47;;;;;;;;;;;;;;;32.41;96.70;99447.00;5073032;28;20264;-78
2022/08/12 11:35:14;;;;;;;;;;;;;;;32.12;98.46;99434.56;5055562;28;19924;-78
2022/08/12 11:37:41;;;;;;;;;;;;;;;32.47;99.88;99442.63;5055056;28;19924;-78
2022/08/12 11:40:08;;;;;;;;;;;;;;;32.18;97.89;99435.19;5055257;28;19924;-78
2022/08/12 11:42:36;;;;;;;;;;;;;;;32.26;95.81;99426.59;5055224;28;20311;-78
2022/08/12 11:45:03;;;;;;;;;;;;;;;32.33;96.58;99426.66;5054843;28;20027;-78
2022/08/12 11:47:30;;;;;;;;;;;;;;;32.49;97.39;99424.69;5073248;28;19931;-78
2022/08/12 11:49:57;;;;;;;;;;;;;;;32.01;99.27;99426.16;5072795;28;20403;-79
2022/08/12 11:52:24;;;;;;;;;;;;;;;32.86;95.93;99421.31;5072519;28;19939;-78
2022/08/12 11:54:52;;;;;;;;;;;;;;;32.52;97.14;99424.31;5071707;28;19978;-78
2022/08/12 11:57:20;;;;;;;;;;;;;;;31.50;99.19;99427.84;5072870;28;19925;-78
2022/08/12 11:59:47;;;;;;;;;;;;;;;32.24;96.44;99418.47;5054903;28;19924;-78
2022/08/12 12:02:37;;;;;;;;;;;;;;;32.11;97.50;99421.41;5072655;28;20322;-78
2022/08/12 12:05:05;;;;;;;;;;;;;;;32.24;97.77;99415.59;5054761;28;20023;-78
2022/08/12 12:07:36;;;;;;;;;;;;;;;32.51;95.77;99416.22;5073149;28;20428;-78
2022/08/12 12:10:04;;;;;;;;;;;;;;;32.60;94.31;99404.91;5038450;28;19938;-78
2022/08/12 12:12:31;;;;;;;;;;;;;;;32.41;94.50;99407.28;5054923;28;19931;-78
2022/08/12 12:14:58;;;;;;;;;;;;;;;31.98;97.65;99412.81;5054449;28;19932;-78
2022/08/12 12:17:28;;;;;;;;;;;;;;;32.61;94.73;99392.00;5072540;28;20291;-78
2022/08/12 12:19:55;;;;;;;;;;;;;;;32.43;95.73;99393.03;5073447;28;19935;-77
2022/08/12 12:22:22;;;;;;;;;;;;;;;32.34;97.03;99396.38;5038960;28;19925;-77
2022/08/12 12:24:49;;;;;;;;;;;;;;;32.29;94.77;99387.88;5076087;28;19931;-77
2022/08/12 12:27:19;;;;;;;;;;;;;;;32.41;94.83;99392.84;5026895;28;19925;-76
2022/08/12 12:29:46;;;;;;;;;;;;;;;32.77;96.29;99395.78;5077261;28;19979;-78
2022/08/12 12:32:14;;;;;;;;;;;;;;;33.29;91.30;99386.66;5059615;28;19924;-77
2022/08/12 12:34:41;;;;;;;;;;;;;;;33.08;93.07;99391.75;5076518;28;20279;-77
2022/08/12 12:37:14;;;;;;;;;;;;;;;33.16;91.67;99380.22;5058999;28;19932;-77
2022/08/12 12:39:47;;;;;;;;;;;;;;;33.06;92.63;99377.06;5059900;28;19986;-77
2022/08/12 12:42:14;;;;;;;;;;;;;;;32.61;92.48;99377.53;5076935;28;20353;-77
2022/08/12 12:44:41;;;;;;;;;;;;;;;32.86;91.05;99372.91;5059203;28;20327;-78
2022/08/12 12:47:09;;;;;;;;;;;;;;;33.02;92.87;99380.31;5059080;28;19928;-78
2022/08/12 12:49:36;;;;;;;;;;;;;;;32.03;92.53;99377.25;5058550;28;19960;-78
2022/08/12 12:52:10;;;;;;;;;;;;;;;33.15;90.90;99367.06;5076669;28;19990;-78
2022/08/12 12:54:51;;;;;;;;;;;;;;;33.61;89.56;99360.13;5050367;28;19925;-78
2022/08/12 12:57:18;;;;;;;;;;;;;;;32.96;89.44;99356.56;5076581;28;19947;-78
2022/08/12 13:00:13;;;;;;;;;;;;;;;31.83;92.23;99363.56;5076550;28;20350;-78
2022/08/12 13:02:33;;;;;;;;;;;;;;;32.93;89.95;99366.38;5076471;28;20003;-78
2022/08/12 13:05:00;;;;;;;;;;;;;;;33.12;89.61;99359.53;5076246;28;19970;-77
2022/08/12 13:07:27;;;;;;;;;;;;;;;32.87;89.99;99362.88;5041737;28;20399;-78
2022/08/12 13:09:55;;;;;;;;;;;;;;;33.36;89.03;99350.38;5041661;28;19924;-77
2022/08/12 13:12:23;;;;;;;;;;;;;;;33.07;91.89;99354.72;5041782;28;20314;-78
2022/08/12 13:14:50;;;;;;;;;;;;;;;33.54;89.24;99355.09;5058750;28;19948;-77
2022/08/12 13:17:20;;;;;;;;;;;;;;;33.70;90.77;99350.88;5058425;28;19928;-77
2022/08/12 13:19:47;;;;;;;;;;;;;;;33.70;90.60;99350.88;5058323;28;20082;-78
2022/08/12 13:22:17;;;;;;;;;;;;;;;33.48;92.41;99348.69;5058214;28;20275;-78
2022/08/12 13:24:45;;;;;;;;;;;;;;;32.18;91.34;99354.25;5060245;28;19924;-77
2022/08/12 13:27:12;;;;;;;;;;;;;;;31.94;90.77;99348.84;5074839;28;20376;-77
2022/08/12 13:29:40;;;;;;;;;;;;;;;31.57;90.59;99349.19;5074781;28;20375;-77
2022/08/12 13:32:07;;;;;;;;;;;;;;;32.08;91.59;99338.72;5074869;28;19932;-77
2022/08/12 13:34:35;;;;;;;;;;;;;;;32.53;92.37;99339.13;5073858;28;19930;-79
2022/08/12 13:37:03;;;;;;;;;;;;;;;32.86;93.11;99338.19;5108075;28;20376;-79
2022/08/12 13:39:30;;;;;;;;;;;;;;;32.93;92.10;99336.66;5074765;28;20368;-79
2022/08/12 13:41:57;;;;;;;;;;;;;;;33.86;91.88;99330.06;5090090;28;20352;-80
2022/08/12 13:44:25;;;;;;;;;;;;;;;32.29;90.90;99333.72;5057731;28;19970;-79
2022/08/12 13:46:52;;;;;;;;;;;;;;;32.00;89.43;99329.25;5074968;28;20445;-78
2022/08/12 13:49:19;;;;;;;;;;;;;;;33.22;89.90;99328.72;5074420;28;19932;-79
2022/08/12 13:51:51;;;;;;;;;;;;;;;33.23;89.82;99321.56;5074381;28;19951;-79
2022/08/12 13:54:19;;;;;;;;;;;;;;;33.69;92.03;99326.13;5075753;28;19933;-79
2022/08/12 13:56:45;;;;;;;;;;;;;;;32.22;93.10;99325.75;5075767;28;19967;-79
2022/08/12 13:59:12;;;;;;;;;;;;;;;32.44;94.31;99330.97;5075583;28;19982;-78
2022/08/12 14:01:40;;;;;;;;;;;;;;;32.67;90.63;99325.31;5074307;28;19928;-80
2022/08/12 14:04:08;;;;;;;;;;;;;;;32.18;93.67;99328.22;5058017;28;20275;-79
2022/08/12 14:06:37;;;;;;;;;;;;;;;32.44;93.33;99333.88;5075356;28;19929;-78
2022/08/12 14:09:04;;;;;;;;;;;;;;;31.32;91.48;99319.09;5075585;28;19986;-77
2022/08/12 14:11:31;;;;;;;;;;;;;;;32.11;90.78;99323.16;5074234;28;19925;-78
2022/08/12 14:13:59;;;;;;;;;;;;;;;32.35;92.81;99316.25;5073898;28;20409;-79
2022/08/12 14:16:28;;;;;;;;;;;;;;;33.32;93.45;99321.00;5090841;28;19932;-79
2022/08/12 14:18:56;;;;;;;;;;;;;;;33.56;91.74;99314.72;5074250;28;19931;-79
2022/08/12 14:21:23;;;;;;;;;;;;;;;33.96;90.21;99313.66;5073739;28;20018;-79
2022/08/12 14:23:51;;;;;;;;;;;;;;;34.35;88.55;99303.59;5075201;28;19947;-79
2022/08/12 14:26:24;;;;;;;;;;;;;;;34.49;88.91;99299.16;5073867;28;20425;-79
2022/08/12 14:28:54;;;;;;;;;;;;;;;34.18;89.15;99298.41;5074979;28;19954;-79
2022/08/12 14:31:22;;;;;;;;;;;;;;;33.98;91.21;99301.47;5073835;28;20257;-79
2022/08/12 14:33:51;;;;;;;;;;;;;;;33.73;89.31;99291.78;5073544;28;19974;-79
2022/08/12 14:36:19;;;;;;;;;;;;;;;33.96;89.13;99289.72;5074945;28;20368;-79
2022/08/12 14:38:48;;;;;;;;;;;;;;;33.71;88.30;99297.38;5074744;28;19935;-79
2022/08/12 14:41:17;;;;;;;;;;;;;;;34.20;87.13;99289.13;5074742;28;19924;-79
2022/08/12 14:43:47;;;;;;;;;;;;;;;33.61;87.98;99290.63;5073466;28;19924;-79